createdAt,value
2023-04-02T00:00:22.962Z,7.81
2023-04-02T00:03:03.910Z,7.88
2023-04-02T00:05:56.210Z,7.76
2023-04-02T00:08:30.212Z,7.80
2023-04-02T00:11:04.895Z,7.81
2023-04-02T00:13:42.474Z,7.98
2023-04-02T00:16:16.819Z,7.96
2023-04-02T00:18:53.960Z,8.00
2023-04-02T00:21:26.255Z,8.01
2023-04-02T00:23:58.280Z,7.95
2023-04-02T00:26:34.721Z,7.93
2023-04-02T00:29:07.243Z,7.92
2023-04-02T00:31:41.310Z,7.98
2023-04-02T00:34:19.195Z,8.07
2023-04-02T00:36:52.258Z,8.18
2023-04-02T00:39:30.198Z,8.28
2023-04-02T00:42:10.268Z,8.28
2023-04-02T00:44:43.505Z,8.23
2023-04-02T00:47:21.468Z,8.15
2023-04-02T00:50:05.824Z,8.20
2023-04-02T00:52:38.745Z,8.28
2023-04-02T00:55:16.542Z,8.43
2023-04-02T00:57:54.750Z,8.49
2023-04-02T01:00:30.617Z,8.58
2023-04-02T01:03:35.377Z,8.66
2023-04-02T01:06:11.972Z,8.71
2023-04-02T01:09:18.597Z,8.71
2023-04-02T01:12:13.064Z,8.62
2023-04-02T01:14:51.619Z,8.66
2023-04-02T01:17:32.910Z,8.70
2023-04-02T01:20:40.158Z,8.64
2023-04-02T01:23:14.510Z,8.64
2023-04-02T01:25:50.198Z,8.73
2023-04-02T01:28:24.169Z,8.74
2023-04-02T01:31:02.968Z,8.66
2023-04-02T01:33:39.043Z,8.68
2023-04-02T01:36:15.453Z,8.74
2023-04-02T01:38:54.800Z,8.72
2023-04-02T01:41:36.822Z,8.64
2023-04-02T01:44:12.353Z,8.66
2023-04-02T01:46:47.826Z,8.64
2023-04-02T01:49:22.423Z,8.79
2023-04-02T01:52:01.598Z,8.73
2023-04-02T01:54:38.070Z,8.66
2023-04-02T01:57:10.903Z,8.64
2023-04-02T01:59:45.932Z,8.59
2023-04-02T02:02:20.063Z,8.60
2023-04-02T02:04:51.782Z,8.63
2023-04-02T02:07:28.798Z,8.64
2023-04-02T02:10:02.561Z,8.63
2023-04-02T02:12:32.417Z,8.56
2023-04-02T02:15:02.703Z,8.51
2023-04-02T02:17:36.171Z,8.63
2023-04-02T02:20:12.266Z,8.53
2023-04-02T02:22:48.110Z,8.55
2023-04-02T02:25:22.178Z,8.53
2023-04-02T02:28:02.169Z,8.60
2023-04-02T02:30:36.576Z,8.59
2023-04-02T02:33:16.544Z,8.61
2023-04-02T02:35:53.210Z,8.55
2023-04-02T02:38:43.832Z,8.55
2023-04-02T02:41:26.548Z,8.39
2023-04-02T02:44:05.473Z,8.47
2023-04-02T02:46:39.014Z,8.39
2023-04-02T02:49:18.661Z,8.29
2023-04-02T02:51:52.938Z,8.27
2023-04-02T02:54:32.907Z,8.22
2023-04-02T02:57:07.066Z,8.14
2023-04-02T02:59:38.021Z,8.10
2023-04-02T03:02:10.003Z,8.11
2023-04-02T03:04:43.430Z,8.12
2023-04-02T03:07:19.494Z,8.16
2023-04-02T03:09:57.532Z,7.98
2023-04-02T03:12:39.020Z,7.98
2023-04-02T03:15:20.363Z,7.79
2023-04-02T03:17:57.043Z,7.78
2023-04-02T03:20:39.789Z,7.71
2023-04-02T03:23:20.608Z,7.65
2023-04-02T03:25:55.359Z,7.57
2023-04-02T03:28:31.483Z,7.52
2023-04-02T03:31:06.150Z,7.47
2023-04-02T03:33:41.103Z,7.44
2023-04-02T03:36:24.071Z,7.41
2023-04-02T03:38:59.645Z,7.33
2023-04-02T03:41:36.125Z,7.40
2023-04-02T03:44:15.845Z,7.35
2023-04-02T03:46:51.265Z,7.38
2023-04-02T03:49:28.433Z,7.32
2023-04-02T03:52:06.637Z,7.26
2023-04-02T03:54:39.603Z,7.24
2023-04-02T03:57:21.517Z,7.26
2023-04-02T04:00:00.658Z,7.19
2023-04-02T04:02:43.612Z,7.22
2023-04-02T04:05:26.296Z,7.10
2023-04-02T04:08:04.499Z,7.15
2023-04-02T04:10:35.798Z,7.26
2023-04-02T04:13:10.320Z,7.29
2023-04-02T04:15:45.115Z,7.24
2023-04-02T04:18:24.487Z,7.32
2023-04-02T04:20:59.305Z,7.32
2023-04-02T04:23:41.478Z,7.43
2023-04-02T04:26:24.862Z,7.44
2023-04-02T04:29:09.916Z,7.43
2023-04-02T04:31:47.487Z,7.45
2023-04-02T04:34:23.815Z,7.40
2023-04-02T04:37:02.003Z,7.39
2023-04-02T04:39:45.548Z,7.45
2023-04-02T04:42:23.380Z,7.47
2023-04-02T04:45:02.138Z,7.49
2023-04-02T04:47:35.241Z,7.37
2023-04-02T04:50:14.550Z,7.47
2023-04-02T04:52:46.181Z,7.60
2023-04-02T04:55:32.906Z,7.60
2023-04-02T04:58:11.546Z,7.75
2023-04-02T05:00:52.095Z,7.76
2023-04-02T05:03:32.248Z,7.75
2023-04-02T05:06:12.821Z,7.84
2023-04-02T05:08:48.635Z,7.92
2023-04-02T05:11:31.646Z,8.09
2023-04-02T05:14:06.728Z,8.21
2023-04-02T05:16:42.732Z,8.19
2023-04-02T05:19:18.062Z,8.23
2023-04-02T05:21:52.619Z,8.28
2023-04-02T05:24:49.855Z,8.32
2023-04-02T05:27:32.023Z,8.34
2023-04-02T05:30:08.314Z,8.31
2023-04-02T05:32:44.275Z,8.39
2023-04-02T05:35:25.304Z,8.32
2023-04-02T05:37:55.988Z,8.38
2023-04-02T05:40:33.868Z,8.44
2023-04-02T05:43:11.746Z,8.47
2023-04-02T05:45:49.127Z,8.60
2023-04-02T05:48:23.397Z,8.67
2023-04-02T05:50:57.569Z,8.81
2023-04-02T05:53:36.454Z,8.93
2023-04-02T05:56:13.687Z,9.17
2023-04-02T05:58:51.138Z,9.42
2023-04-02T06:01:39.411Z,9.60
2023-04-02T06:04:22.925Z,9.56
2023-04-02T06:07:00.975Z,9.59
2023-04-02T06:09:39.133Z,9.61
2023-04-02T06:12:36.118Z,9.67
2023-04-02T06:15:17.234Z,9.96
2023-04-02T06:17:51.012Z,10.22
2023-04-02T06:20:24.216Z,10.24
2023-04-02T06:22:58.998Z,10.47
2023-04-02T06:25:34.412Z,10.38
2023-04-02T06:28:09.079Z,10.23
2023-04-02T06:30:46.338Z,10.21
2023-04-02T06:33:17.033Z,10.35
2023-04-02T06:35:51.327Z,10.18
2023-04-02T06:38:32.857Z,10.40
2023-04-02T06:41:08.424Z,10.40
2023-04-02T06:43:50.996Z,10.28
2023-04-02T06:46:34.267Z,10.52
2023-04-02T06:49:17.448Z,10.78
2023-04-02T06:51:51.166Z,10.80
2023-04-02T06:54:22.089Z,10.71
2023-04-02T06:56:59.256Z,11.11
2023-04-02T06:59:50.249Z,11.15
2023-04-02T07:02:32.282Z,10.80
2023-04-02T07:05:09.427Z,10.96
2023-04-02T07:07:43.256Z,11.27
2023-04-02T07:10:16.034Z,11.40
2023-04-02T07:12:46.281Z,11.26
2023-04-02T07:15:19.862Z,11.21
2023-04-02T07:17:55.072Z,11.21
2023-04-02T07:20:31.945Z,11.24
2023-04-02T07:23:06.160Z,11.13
2023-04-02T07:25:36.661Z,11.19
2023-04-02T07:28:08.753Z,11.22
2023-04-02T07:30:39.403Z,11.11
2023-04-02T07:33:16.657Z,11.35
2023-04-02T07:35:47.359Z,11.44
2023-04-02T07:38:17.644Z,11.37
2023-04-02T07:40:48.098Z,11.46
2023-04-02T07:43:20.831Z,11.65
2023-04-02T07:45:52.844Z,11.92
2023-04-02T07:48:25.921Z,11.66
2023-04-02T07:50:58.778Z,11.95
2023-04-02T07:53:47.521Z,11.60
2023-04-02T07:56:24.094Z,11.75
2023-04-02T07:58:54.003Z,12.01
2023-04-02T08:01:26.826Z,12.07
2023-04-02T08:04:00.935Z,12.23
2023-04-02T08:06:31.424Z,12.35
2023-04-02T08:09:01.806Z,12.11
2023-04-02T08:11:32.091Z,12.21
2023-04-02T08:14:02.314Z,12.54
2023-04-02T08:16:48.917Z,12.76
2023-04-02T08:19:25.382Z,12.69
2023-04-02T08:21:55.651Z,12.44
2023-04-02T08:24:26.514Z,12.52
2023-04-02T08:26:56.777Z,13.14
2023-04-02T08:29:29.473Z,13.15
2023-04-02T08:31:59.746Z,13.16
2023-04-02T08:34:32.677Z,13.50
2023-04-02T08:37:03.087Z,13.24
2023-04-02T08:39:35.525Z,13.38
2023-04-02T08:42:09.543Z,13.45
2023-04-02T08:44:48.618Z,13.81
2023-04-02T08:47:26.288Z,13.43
2023-04-02T08:50:04.689Z,14.41
2023-04-02T08:52:37.565Z,13.78
2023-04-02T08:55:26.265Z,13.83
2023-04-02T08:58:04.274Z,14.20
2023-04-02T09:00:39.742Z,14.55
2023-04-02T09:03:13.777Z,13.52
2023-04-02T09:05:48.881Z,13.84
2023-04-02T09:08:22.192Z,14.02
2023-04-02T09:10:57.954Z,13.43
2023-04-02T09:13:30.502Z,13.53
2023-04-02T09:16:07.841Z,14.01
2023-04-02T09:18:38.620Z,14.15
2023-04-02T09:21:34.765Z,13.37
2023-04-02T09:24:05.496Z,13.31
2023-04-02T09:26:37.356Z,13.48
2023-04-02T09:29:35.084Z,13.06
2023-04-02T09:32:20.206Z,13.56
2023-04-02T09:34:50.443Z,13.53
2023-04-02T09:37:26.073Z,13.75
2023-04-02T09:40:12.416Z,14.34
2023-04-02T09:42:42.621Z,14.20
2023-04-02T09:45:18.669Z,13.78
2023-04-02T09:47:49.039Z,14.32
2023-04-02T09:50:35.104Z,14.56
2023-04-02T09:53:29.353Z,15.13
2023-04-02T09:56:12.805Z,15.28
2023-04-02T09:58:44.320Z,15.13
2023-04-02T10:01:36.388Z,15.18
2023-04-02T10:04:08.743Z,15.22
2023-04-02T10:06:39.368Z,14.89
2023-04-02T10:09:32.862Z,15.15
2023-04-02T10:12:06.659Z,14.72
2023-04-02T10:14:41.126Z,15.15
2023-04-02T10:17:17.710Z,15.23
2023-04-02T10:19:53.655Z,14.86
2023-04-02T10:22:26.356Z,14.91
2023-04-02T10:25:04.284Z,14.85
2023-04-02T10:27:40.775Z,14.81
2023-04-02T10:30:22.378Z,14.80
2023-04-02T10:32:58.775Z,15.21
2023-04-02T10:35:41.332Z,15.33
2023-04-02T10:38:32.357Z,14.71
2023-04-02T10:41:12.099Z,15.13
2023-04-02T10:44:19.682Z,15.66
2023-04-02T10:47:01.109Z,15.41
2023-04-02T10:49:39.616Z,14.81
2023-04-02T10:52:14.517Z,14.17
2023-04-02T10:54:49.630Z,14.36
2023-04-02T10:57:40.815Z,14.00
2023-04-02T11:00:21.522Z,14.19
2023-04-02T11:02:56.923Z,14.56
2023-04-02T11:05:37.675Z,14.12
2023-04-02T11:08:13.773Z,14.08
2023-04-02T11:10:49.723Z,14.18
2023-04-02T11:13:28.637Z,14.39
2023-04-02T11:15:59.191Z,14.27
2023-04-02T11:18:34.407Z,14.90
2023-04-02T11:21:06.929Z,15.10
2023-04-02T11:23:57.772Z,15.08
2023-04-02T11:26:53.300Z,15.49
2023-04-02T11:29:30.343Z,15.59
2023-04-02T11:32:16.953Z,14.97
2023-04-02T11:35:28.908Z,15.37
2023-04-02T11:38:01.168Z,15.29
2023-04-02T11:40:55.568Z,15.45
2023-04-02T11:43:52.014Z,14.62
2023-04-02T11:46:42.387Z,14.24
2023-04-02T11:49:41.367Z,14.49
2023-04-02T11:52:30.420Z,14.52
2023-04-02T11:55:16.980Z,14.81
2023-04-02T11:57:58.759Z,14.65
2023-04-02T12:01:12.003Z,15.00
2023-04-02T12:04:14.541Z,15.60
2023-04-02T12:07:00.173Z,16.08
2023-04-02T12:09:32.848Z,16.36
2023-04-02T12:12:18.254Z,15.40
2023-04-02T12:14:50.849Z,15.40
2023-04-02T12:17:28.279Z,15.05
2023-04-02T12:20:09.632Z,14.65
2023-04-02T12:22:43.494Z,15.13
2023-04-02T12:25:27.154Z,15.41
2023-04-02T12:28:08.187Z,15.61
2023-04-02T12:30:39.264Z,15.65
2023-04-02T12:33:20.399Z,15.70
2023-04-02T12:35:58.533Z,15.96
2023-04-02T12:38:30.509Z,15.69
2023-04-02T12:41:03.748Z,15.89
2023-04-02T12:43:35.466Z,16.22
2023-04-02T12:46:09.028Z,15.43
2023-04-02T12:48:39.779Z,15.67
2023-04-02T12:51:13.921Z,15.50
2023-04-02T12:53:45.012Z,15.28
2023-04-02T12:56:22.844Z,15.20
2023-04-02T12:58:57.258Z,15.26
2023-04-02T13:01:31.860Z,15.54
2023-04-02T13:04:07.533Z,15.49
2023-04-02T13:06:44.846Z,15.90
2023-04-02T13:09:33.014Z,15.18
2023-04-02T13:12:03.765Z,15.23
2023-04-02T13:14:34.435Z,15.96
2023-04-02T13:17:04.659Z,15.36
2023-04-02T13:19:36.449Z,15.53
2023-04-02T13:22:33.521Z,15.28
2023-04-02T13:25:04.016Z,15.62
2023-04-02T13:27:36.042Z,15.52
2023-04-02T13:30:11.881Z,15.36
2023-04-02T13:32:42.612Z,15.70
2023-04-02T13:35:12.889Z,15.81
2023-04-02T13:37:46.471Z,15.31
2023-04-02T13:40:18.028Z,15.52
2023-04-02T13:42:49.778Z,15.27
2023-04-02T13:45:27.778Z,15.50
2023-04-02T13:48:01.278Z,14.99
2023-04-02T13:50:31.806Z,14.79
2023-04-02T13:53:10.647Z,15.19
2023-04-02T13:55:45.133Z,15.49
2023-04-02T13:58:15.329Z,15.46
2023-04-02T14:00:46.851Z,15.47
2023-04-02T14:03:19.847Z,16.03
2023-04-02T14:05:58.479Z,16.37
2023-04-02T14:08:43.594Z,15.81
2023-04-02T14:11:30.773Z,16.18
2023-04-02T14:14:30.516Z,15.98
2023-04-02T14:17:13.510Z,15.91
2023-04-02T14:19:56.544Z,15.79
2023-04-02T14:22:38.233Z,15.44
2023-04-02T14:25:20.926Z,14.95
2023-04-02T14:28:02.292Z,15.06
2023-04-02T14:30:45.087Z,15.34
2023-04-02T14:33:23.868Z,15.09
2023-04-02T14:35:57.747Z,15.01
2023-04-02T14:38:36.852Z,14.93
2023-04-02T14:41:16.891Z,15.26
2023-04-02T14:43:51.915Z,15.18
2023-04-02T14:46:22.440Z,14.81
2023-04-02T14:48:57.617Z,14.73
2023-04-02T14:51:33.350Z,14.10
2023-04-02T14:54:10.380Z,13.63
2023-04-02T14:56:49.508Z,13.43
2023-04-02T14:59:28.752Z,13.49
2023-04-02T15:02:03.302Z,13.62
2023-04-02T15:04:38.359Z,13.77
2023-04-02T15:07:14.728Z,13.57
2023-04-02T15:09:52.123Z,13.65
2023-04-02T15:12:29.792Z,13.64
2023-04-02T15:15:05.357Z,13.90
2023-04-02T15:17:36.435Z,13.88
2023-04-02T15:20:16.695Z,13.94
2023-04-02T15:22:59.993Z,13.59
2023-04-02T15:25:37.011Z,13.32
2023-04-02T15:28:28.304Z,13.09
2023-04-02T15:31:01.690Z,13.06
2023-04-02T15:33:52.358Z,12.95
2023-04-02T15:36:44.989Z,12.81
2023-04-02T15:39:37.141Z,12.84
2023-04-02T15:42:24.752Z,12.85
2023-04-02T15:45:20.573Z,12.74
2023-04-02T15:48:04.931Z,12.67
2023-04-02T15:50:49.896Z,12.84
2023-04-02T15:53:33.976Z,12.58
2023-04-02T15:56:12.085Z,12.38
2023-04-02T15:59:03.560Z,12.24
2023-04-02T16:01:44.454Z,12.19
2023-04-02T16:04:46.122Z,12.20
2023-04-02T16:07:29.289Z,12.18
2023-04-02T16:10:10.698Z,12.10
2023-04-02T16:12:43.804Z,11.89
2023-04-02T16:15:23.870Z,11.97
2023-04-02T16:18:01.801Z,11.67
2023-04-02T16:20:34.898Z,11.51
2023-04-02T16:23:13.269Z,11.46
2023-04-02T16:25:53.914Z,11.34
2023-04-02T16:28:30.162Z,11.33
2023-04-02T16:31:08.920Z,11.31
2023-04-02T16:33:52.380Z,11.27
2023-04-02T16:36:33.574Z,11.31
2023-04-02T16:39:08.698Z,11.28
2023-04-02T16:41:55.049Z,11.35
2023-04-02T16:44:35.471Z,11.34
2023-04-02T16:47:20.090Z,11.28
2023-04-02T16:49:58.311Z,11.25
2023-04-02T16:52:43.230Z,11.31
2023-04-02T16:55:26.396Z,11.25
2023-04-02T16:58:05.719Z,11.38
2023-04-02T17:00:45.585Z,11.23
2023-04-02T17:03:32.964Z,11.26
2023-04-02T17:06:09.830Z,11.22
2023-04-02T17:08:46.073Z,11.14
2023-04-02T17:11:26.289Z,11.17
2023-04-02T17:14:06.386Z,11.19
2023-04-02T17:16:43.955Z,11.20
2023-04-02T17:19:16.280Z,11.25
2023-04-02T17:21:52.309Z,11.22
2023-04-02T17:24:28.667Z,11.27
2023-04-02T17:27:06.582Z,11.26
2023-04-02T17:29:40.936Z,11.28
2023-04-02T17:32:21.456Z,11.36
2023-04-02T17:34:51.925Z,11.31
2023-04-02T17:37:33.165Z,11.26
2023-04-02T17:40:13.158Z,11.26
2023-04-02T17:42:55.187Z,11.26
2023-04-02T17:45:32.582Z,11.15
2023-04-02T17:48:08.770Z,11.11
2023-04-02T17:50:54.299Z,11.04
2023-04-02T17:53:45.857Z,10.96
2023-04-02T17:56:37.142Z,10.81
2023-04-02T17:59:24.099Z,10.51
2023-04-02T18:02:07.976Z,10.27
2023-04-02T18:04:43.007Z,10.12
2023-04-02T18:07:37.285Z,10.00
2023-04-02T18:10:18.609Z,9.75
2023-04-02T18:13:00.652Z,9.67
2023-04-02T18:16:01.908Z,9.62
2023-04-02T18:18:52.706Z,9.49
2023-04-02T18:21:33.828Z,9.33
2023-04-02T18:24:42.756Z,9.21
2023-04-02T18:27:30.207Z,9.12
2023-04-02T18:30:10.779Z,9.15
2023-04-02T18:33:02.931Z,8.97
2023-04-02T18:35:36.770Z,8.84
2023-04-02T18:38:18.920Z,8.68
2023-04-02T18:41:11.266Z,8.53
2023-04-02T18:43:57.617Z,8.40
2023-04-02T18:46:35.661Z,8.23
2023-04-02T18:49:14.278Z,8.15
2023-04-02T18:51:44.827Z,8.14
2023-04-02T18:54:25.457Z,7.96
2023-04-02T18:56:55.722Z,7.84
2023-04-02T18:59:37.676Z,7.77
2023-04-02T19:02:33.710Z,7.63
2023-04-02T19:05:07.501Z,7.50
2023-04-02T19:07:42.670Z,7.42
2023-04-02T19:10:26.398Z,7.36
2023-04-02T19:12:56.517Z,7.25
2023-04-02T19:15:41.687Z,7.17
2023-04-02T19:18:19.917Z,6.99
2023-04-02T19:21:01.729Z,6.95
2023-04-02T19:23:44.387Z,6.83
2023-04-02T19:26:18.966Z,6.70
2023-04-02T19:28:59.533Z,6.64
2023-04-02T19:31:46.951Z,6.60
2023-04-02T19:34:25.175Z,6.45
2023-04-02T19:37:00.120Z,6.34
2023-04-02T19:39:56.004Z,6.35
2023-04-02T19:42:47.093Z,6.21
2023-04-02T19:45:34.358Z,6.11
2023-04-02T19:48:14.900Z,6.08
2023-04-02T19:50:47.863Z,6.02
2023-04-02T19:53:18.335Z,6.01
2023-04-02T19:55:49.643Z,5.94
2023-04-02T19:58:29.054Z,5.87
2023-04-02T20:01:00.967Z,5.82
2023-04-02T20:03:34.034Z,5.75
2023-04-02T20:06:04.365Z,5.80
2023-04-02T20:08:36.409Z,5.76
2023-04-02T20:11:07.181Z,5.72
2023-04-02T20:13:37.971Z,5.66
2023-04-02T20:16:09.325Z,5.65
2023-04-02T20:18:42.168Z,5.59
2023-04-02T20:21:12.770Z,5.51
2023-04-02T20:23:43.149Z,5.47
2023-04-02T20:26:14.035Z,5.44
2023-04-02T20:28:46.426Z,5.40
2023-04-02T20:31:19.529Z,5.34
2023-04-02T20:33:52.523Z,5.31
2023-04-02T20:36:22.992Z,5.21
2023-04-02T20:38:54.064Z,5.17
2023-04-02T20:41:24.857Z,5.05
2023-04-02T20:43:55.224Z,5.04
2023-04-02T20:46:25.832Z,5.08
2023-04-02T20:48:58.843Z,5.12
2023-04-02T20:51:29.019Z,5.17
2023-04-02T20:53:59.210Z,5.12
2023-04-02T20:56:29.744Z,5.10
2023-04-02T20:58:59.994Z,5.09
2023-04-02T21:01:31.921Z,5.12
2023-04-02T21:04:06.334Z,5.07
2023-04-02T21:06:39.715Z,5.09
2023-04-02T21:09:14.733Z,5.15
2023-04-02T21:11:45.657Z,5.18
2023-04-02T21:14:15.819Z,5.10
2023-04-02T21:16:46.116Z,5.13
2023-04-02T21:19:19.049Z,5.12
2023-04-02T21:21:49.678Z,5.23
2023-04-02T21:24:19.894Z,5.19
2023-04-02T21:26:50.645Z,5.19
2023-04-02T21:29:21.266Z,5.14
2023-04-02T21:31:54.401Z,5.13
2023-04-02T21:34:28.642Z,5.15
2023-04-02T21:36:58.819Z,5.17
2023-04-02T21:39:28.995Z,5.13
2023-04-02T21:42:01.861Z,5.19
2023-04-02T21:44:32.192Z,5.19
2023-04-02T21:47:02.487Z,5.20
2023-04-02T21:49:37.115Z,5.13
2023-04-02T21:52:08.515Z,5.07
2023-04-02T21:54:38.713Z,5.15
2023-04-02T21:57:08.928Z,5.12
2023-04-02T21:59:39.413Z,5.08
2023-04-02T22:02:09.532Z,5.09
2023-04-02T22:04:43.914Z,5.10
2023-04-02T22:07:14.109Z,5.12
2023-04-02T22:09:44.275Z,5.12
2023-04-02T22:12:14.578Z,5.11
2023-04-02T22:14:44.788Z,5.14
2023-04-02T22:17:15.068Z,5.24
2023-04-02T22:19:47.901Z,5.17
2023-04-02T22:22:20.694Z,5.21
2023-04-02T22:24:51.196Z,5.22
2023-04-02T22:27:21.419Z,5.17
2023-04-02T22:29:51.897Z,5.20
2023-04-02T22:32:22.111Z,5.18
2023-04-02T22:34:55.287Z,5.20
2023-04-02T22:37:25.736Z,5.21
2023-04-02T22:39:56.594Z,5.20
2023-04-02T22:42:27.668Z,5.21
2023-04-02T22:44:58.480Z,5.28
2023-04-02T22:47:29.978Z,5.24
2023-04-02T22:50:02.748Z,5.30
2023-04-02T22:52:32.898Z,5.20
2023-04-02T22:55:03.141Z,5.21
2023-04-02T22:57:33.402Z,5.21
2023-04-02T23:00:04.093Z,5.20
2023-04-02T23:02:34.316Z,5.12
2023-04-02T23:05:08.096Z,5.06
2023-04-02T23:07:38.797Z,5.08
2023-04-02T23:10:10.015Z,5.03
2023-04-02T23:12:40.198Z,5.03
2023-04-02T23:15:11.677Z,4.93
2023-04-02T23:17:41.915Z,4.94
2023-04-02T23:20:16.051Z,4.89
2023-04-02T23:22:46.232Z,4.94
2023-04-02T23:25:16.513Z,4.88
2023-04-02T23:27:46.701Z,4.83
2023-04-02T23:30:17.211Z,4.80
2023-04-02T23:32:47.419Z,4.78
2023-04-02T23:35:20.383Z,4.75
2023-04-02T23:37:52.079Z,4.68
2023-04-02T23:40:22.417Z,4.60
2023-04-02T23:42:52.669Z,4.56
2023-04-02T23:45:23.200Z,4.50
2023-04-02T23:47:53.551Z,4.52
2023-04-02T23:50:26.344Z,4.55
2023-04-02T23:52:56.540Z,4.55
2023-04-02T23:55:26.791Z,4.54
2023-04-02T23:57:57.055Z,4.55
